sensor_id;sensor_type;location;lat;lon;timestamp;temperature;humidity
44855;DHT22;30591;48.228;16.398;2023-07-30T00:01:10;22.70;97.90
44855;DHT22;30591;48.228;16.398;2023-07-30T00:03:38;22.70;98.10
44855;DHT22;30591;48.228;16.398;2023-07-30T00:06:05;22.60;98.10
44855;DHT22;30591;48.228;16.398;2023-07-30T00:08:33;22.60;98.60
44855;DHT22;30591;48.228;16.398;2023-07-30T00:11:00;22.60;98.60
44855;DHT22;30591;48.228;16.398;2023-07-30T00:13:27;22.60;98.80
44855;DHT22;30591;48.228;16.398;2023-07-30T00:15:55;22.50;99.10
44855;DHT22;30591;48.228;16.398;2023-07-30T00:18:23;22.50;99.30
44855;DHT22;30591;48.228;16.398;2023-07-30T00:20:50;22.50;99.30
44855;DHT22;30591;48.228;16.398;2023-07-30T00:23:18;22.50;99.20
44855;DHT22;30591;48.228;16.398;2023-07-30T00:25:45;22.40;99.70
44855;DHT22;30591;48.228;16.398;2023-07-30T00:28:13;22.40;99.30
44855;DHT22;30591;48.228;16.398;2023-07-30T00:30:40;22.40;99.90
44855;DHT22;30591;48.228;16.398;2023-07-30T00:33:07;22.40;99.60
44855;DHT22;30591;48.228;16.398;2023-07-30T00:35:35;22.40;99.80
44855;DHT22;30591;48.228;16.398;2023-07-30T00:38:02;22.40;99.90
44855;DHT22;30591;48.228;16.398;2023-07-30T00:40:29;22.30;99.60
44855;DHT22;30591;48.228;16.398;2023-07-30T00:42:57;22.40;99.20
44855;DHT22;30591;48.228;16.398;2023-07-30T00:45:24;22.40;99.60
44855;DHT22;30591;48.228;16.398;2023-07-30T00:47:54;22.40;99.80
44855;DHT22;30591;48.228;16.398;2023-07-30T00:50:21;22.40;99.60
44855;DHT22;30591;48.228;16.398;2023-07-30T00:52:49;22.40;99.60
44855;DHT22;30591;48.228;16.398;2023-07-30T00:55:17;22.30;99.60
44855;DHT22;30591;48.228;16.398;2023-07-30T00:57:45;22.30;99.70
44855;DHT22;30591;48.228;16.398;2023-07-30T01:00:13;22.30;99.80
44855;DHT22;30591;48.228;16.398;2023-07-30T01:02:42;22.30;99.90
44855;DHT22;30591;48.228;16.398;2023-07-30T01:05:10;22.30;99.90
44855;DHT22;30591;48.228;16.398;2023-07-30T01:07:37;22.20;99.90
44855;DHT22;30591;48.228;16.398;2023-07-30T01:10:05;22.20;99.90
44855;DHT22;30591;48.228;16.398;2023-07-30T01:12:34;22.20;99.90
44855;DHT22;30591;48.228;16.398;2023-07-30T01:15:04;22.20;99.90
44855;DHT22;30591;48.228;16.398;2023-07-30T01:17:31;22.20;99.90
44855;DHT22;30591;48.228;16.398;2023-07-30T01:19:59;22.10;99.90
44855;DHT22;30591;48.228;16.398;2023-07-30T01:22:26;22.10;99.90
44855;DHT22;30591;48.228;16.398;2023-07-30T01:24:57;22.10;99.90
44855;DHT22;30591;48.228;16.398;2023-07-30T01:27:33;22.00;99.90
44855;DHT22;30591;48.228;16.398;2023-07-30T01:32:40;22.10;99.90
44855;DHT22;30591;48.228;16.398;2023-07-30T01:35:08;22.00;99.90
44855;DHT22;30591;48.228;16.398;2023-07-30T01:37:37;21.90;99.90
44855;DHT22;30591;48.228;16.398;2023-07-30T01:40:08;21.90;99.90
44855;DHT22;30591;48.228;16.398;2023-07-30T01:43:07;21.90;99.90
44855;DHT22;30591;48.228;16.398;2023-07-30T01:45:34;22.00;99.90
44855;DHT22;30591;48.228;16.398;2023-07-30T01:48:02;21.90;99.90
44855;DHT22;30591;48.228;16.398;2023-07-30T01:50:29;21.90;99.90
44855;DHT22;30591;48.228;16.398;2023-07-30T01:52:57;21.90;99.90
44855;DHT22;30591;48.228;16.398;2023-07-30T01:55:24;21.80;99.90
44855;DHT22;30591;48.228;16.398;2023-07-30T01:57:52;21.90;99.90
44855;DHT22;30591;48.228;16.398;2023-07-30T02:00:19;21.90;99.90
44855;DHT22;30591;48.228;16.398;2023-07-30T02:02:46;21.80;99.90
44855;DHT22;30591;48.228;16.398;2023-07-30T02:05:14;21.80;99.90
44855;DHT22;30591;48.228;16.398;2023-07-30T02:07:44;21.80;99.90
44855;DHT22;30591;48.228;16.398;2023-07-30T02:10:11;21.70;99.90
44855;DHT22;30591;48.228;16.398;2023-07-30T02:12:39;21.70;99.90
44855;DHT22;30591;48.228;16.398;2023-07-30T02:15:07;21.60;99.90
44855;DHT22;30591;48.228;16.398;2023-07-30T02:17:34;21.70;99.90
44855;DHT22;30591;48.228;16.398;2023-07-30T02:20:02;21.70;99.90
44855;DHT22;30591;48.228;16.398;2023-07-30T02:22:30;21.70;99.90
44855;DHT22;30591;48.228;16.398;2023-07-30T02:24:57;21.70;99.90
44855;DHT22;30591;48.228;16.398;2023-07-30T02:27:24;21.70;99.90
44855;DHT22;30591;48.228;16.398;2023-07-30T02:29:52;21.60;99.90
44855;DHT22;30591;48.228;16.398;2023-07-30T02:32:19;21.60;99.90
44855;DHT22;30591;48.228;16.398;2023-07-30T02:34:47;21.70;99.90
44855;DHT22;30591;48.228;16.398;2023-07-30T02:37:14;21.70;99.90
44855;DHT22;30591;48.228;16.398;2023-07-30T02:39:41;21.70;99.90
44855;DHT22;30591;48.228;16.398;2023-07-30T02:42:09;21.60;99.90
44855;DHT22;30591;48.228;16.398;2023-07-30T02:44:36;21.60;99.90
44855;DHT22;30591;48.228;16.398;2023-07-30T02:47:04;21.60;99.90
44855;DHT22;30591;48.228;16.398;2023-07-30T02:49:32;21.60;99.90
44855;DHT22;30591;48.228;16.398;2023-07-30T02:51:59;21.60;99.90
44855;DHT22;30591;48.228;16.398;2023-07-30T02:54:26;21.60;99.90
44855;DHT22;30591;48.228;16.398;2023-07-30T02:56:54;21.60;99.90
44855;DHT22;30591;48.228;16.398;2023-07-30T02:59:21;21.60;99.90
44855;DHT22;30591;48.228;16.398;2023-07-30T03:01:48;21.50;99.90
44855;DHT22;30591;48.228;16.398;2023-07-30T03:04:16;21.60;99.90
44855;DHT22;30591;48.228;16.398;2023-07-30T03:06:44;21.60;99.90
44855;DHT22;30591;48.228;16.398;2023-07-30T03:09:11;21.60;99.90
44855;DHT22;30591;48.228;16.398;2023-07-30T03:11:38;21.60;99.90
44855;DHT22;30591;48.228;16.398;2023-07-30T03:14:06;21.60;99.90
44855;DHT22;30591;48.228;16.398;2023-07-30T03:16:34;21.60;99.90
44855;DHT22;30591;48.228;16.398;2023-07-30T03:19:02;21.50;99.90
44855;DHT22;30591;48.228;16.398;2023-07-30T03:21:29;21.50;99.90
44855;DHT22;30591;48.228;16.398;2023-07-30T03:23:56;21.50;99.90
44855;DHT22;30591;48.228;16.398;2023-07-30T03:26:24;21.50;99.90
44855;DHT22;30591;48.228;16.398;2023-07-30T03:28:51;21.50;99.90
44855;DHT22;30591;48.228;16.398;2023-07-30T03:31:19;21.40;99.90
44855;DHT22;30591;48.228;16.398;2023-07-30T03:33:46;21.40;99.90
44855;DHT22;30591;48.228;16.398;2023-07-30T03:36:14;21.50;99.90
44855;DHT22;30591;48.228;16.398;2023-07-30T03:38:42;21.50;99.90
44855;DHT22;30591;48.228;16.398;2023-07-30T03:41:10;21.50;99.90
44855;DHT22;30591;48.228;16.398;2023-07-30T03:43:38;21.50;99.90
44855;DHT22;30591;48.228;16.398;2023-07-30T03:46:05;21.50;99.90
44855;DHT22;30591;48.228;16.398;2023-07-30T03:48:33;21.50;99.90
44855;DHT22;30591;48.228;16.398;2023-07-30T03:51:00;21.50;99.90
44855;DHT22;30591;48.228;16.398;2023-07-30T03:53:27;21.50;99.90
44855;DHT22;30591;48.228;16.398;2023-07-30T03:55:55;21.60;99.90
44855;DHT22;30591;48.228;16.398;2023-07-30T03:58:22;21.50;99.90
44855;DHT22;30591;48.228;16.398;2023-07-30T04:00:49;21.60;99.90
44855;DHT22;30591;48.228;16.398;2023-07-30T04:03:17;21.50;99.90
44855;DHT22;30591;48.228;16.398;2023-07-30T04:05:45;21.60;99.90
44855;DHT22;30591;48.228;16.398;2023-07-30T04:08:12;21.50;99.90
44855;DHT22;30591;48.228;16.398;2023-07-30T04:10:39;21.60;99.90
44855;DHT22;30591;48.228;16.398;2023-07-30T04:13:06;21.60;99.90
44855;DHT22;30591;48.228;16.398;2023-07-30T04:15:35;21.50;99.90
44855;DHT22;30591;48.228;16.398;2023-07-30T04:18:02;21.50;99.90
44855;DHT22;30591;48.228;16.398;2023-07-30T04:20:31;21.60;99.90
44855;DHT22;30591;48.228;16.398;2023-07-30T04:22:58;21.60;99.90
44855;DHT22;30591;48.228;16.398;2023-07-30T04:25:25;21.60;99.90
44855;DHT22;30591;48.228;16.398;2023-07-30T04:27:53;21.60;99.90
44855;DHT22;30591;48.228;16.398;2023-07-30T04:30:20;21.60;99.90
44855;DHT22;30591;48.228;16.398;2023-07-30T04:32:48;21.60;99.90
44855;DHT22;30591;48.228;16.398;2023-07-30T04:35:15;21.70;99.90
44855;DHT22;30591;48.228;16.398;2023-07-30T04:37:42;21.60;99.90
44855;DHT22;30591;48.228;16.398;2023-07-30T04:40:10;21.60;99.90
44855;DHT22;30591;48.228;16.398;2023-07-30T04:42:38;21.60;99.90
44855;DHT22;30591;48.228;16.398;2023-07-30T04:45:06;21.70;99.90
44855;DHT22;30591;48.228;16.398;2023-07-30T04:47:36;21.60;99.90
44855;DHT22;30591;48.228;16.398;2023-07-30T04:50:04;21.70;99.90
44855;DHT22;30591;48.228;16.398;2023-07-30T04:52:31;21.70;99.90
44855;DHT22;30591;48.228;16.398;2023-07-30T04:54:58;21.80;99.90
44855;DHT22;30591;48.228;16.398;2023-07-30T04:57:26;21.90;99.90
44855;DHT22;30591;48.228;16.398;2023-07-30T04:59:54;21.90;99.90
44855;DHT22;30591;48.228;16.398;2023-07-30T05:02:21;21.90;99.90
44855;DHT22;30591;48.228;16.398;2023-07-30T05:04:49;21.90;99.90
44855;DHT22;30591;48.228;16.398;2023-07-30T05:07:16;21.90;99.90
44855;DHT22;30591;48.228;16.398;2023-07-30T05:09:44;22.00;99.90
44855;DHT22;30591;48.228;16.398;2023-07-30T05:12:11;21.90;99.90
44855;DHT22;30591;48.228;16.398;2023-07-30T05:14:38;22.00;99.90
44855;DHT22;30591;48.228;16.398;2023-07-30T05:17:06;22.00;99.90
44855;DHT22;30591;48.228;16.398;2023-07-30T05:19:33;22.00;99.90
44855;DHT22;30591;48.228;16.398;2023-07-30T05:22:01;22.10;99.90
44855;DHT22;30591;48.228;16.398;2023-07-30T05:24:29;22.20;99.90
44855;DHT22;30591;48.228;16.398;2023-07-30T05:26:56;22.20;99.90
44855;DHT22;30591;48.228;16.398;2023-07-30T05:29:23;22.20;99.90
44855;DHT22;30591;48.228;16.398;2023-07-30T05:31:50;22.20;99.90
44855;DHT22;30591;48.228;16.398;2023-07-30T05:34:18;22.20;99.90
44855;DHT22;30591;48.228;16.398;2023-07-30T05:36:45;22.30;99.90
44855;DHT22;30591;48.228;16.398;2023-07-30T05:39:13;22.30;99.90
44855;DHT22;30591;48.228;16.398;2023-07-30T05:41:40;22.30;99.90
44855;DHT22;30591;48.228;16.398;2023-07-30T05:44:07;22.40;99.90
44855;DHT22;30591;48.228;16.398;2023-07-30T05:46:35;22.30;99.90
44855;DHT22;30591;48.228;16.398;2023-07-30T05:49:02;22.40;99.90
44855;DHT22;30591;48.228;16.398;2023-07-30T05:51:29;22.30;99.90
44855;DHT22;30591;48.228;16.398;2023-07-30T05:53:57;22.40;99.90
44855;DHT22;30591;48.228;16.398;2023-07-30T05:56:24;22.40;99.90
44855;DHT22;30591;48.228;16.398;2023-07-30T05:58:51;22.40;99.90
44855;DHT22;30591;48.228;16.398;2023-07-30T06:01:18;22.30;99.90
44855;DHT22;30591;48.228;16.398;2023-07-30T06:03:47;22.40;99.90
44855;DHT22;30591;48.228;16.398;2023-07-30T06:06:14;22.30;99.90
44855;DHT22;30591;48.228;16.398;2023-07-30T06:08:42;22.40;99.90
44855;DHT22;30591;48.228;16.398;2023-07-30T06:11:09;22.40;99.90
44855;DHT22;30591;48.228;16.398;2023-07-30T06:13:36;22.40;99.90
44855;DHT22;30591;48.228;16.398;2023-07-30T06:16:04;22.40;99.90
44855;DHT22;30591;48.228;16.398;2023-07-30T06:18:31;22.40;99.90
44855;DHT22;30591;48.228;16.398;2023-07-30T06:20:59;22.40;99.90
44855;DHT22;30591;48.228;16.398;2023-07-30T06:23:26;22.50;99.90
44855;DHT22;30591;48.228;16.398;2023-07-30T06:25:53;22.60;99.90
44855;DHT22;30591;48.228;16.398;2023-07-30T06:28:21;22.60;99.90
44855;DHT22;30591;48.228;16.398;2023-07-30T06:30:48;22.60;99.90
44855;DHT22;30591;48.228;16.398;2023-07-30T06:33:15;22.60;99.90
44855;DHT22;30591;48.228;16.398;2023-07-30T06:35:43;22.60;99.90
44855;DHT22;30591;48.228;16.398;2023-07-30T06:38:10;22.50;99.90
44855;DHT22;30591;48.228;16.398;2023-07-30T06:40:38;22.50;99.90
44855;DHT22;30591;48.228;16.398;2023-07-30T06:43:05;22.50;99.90
44855;DHT22;30591;48.228;16.398;2023-07-30T06:45:32;22.50;99.90
44855;DHT22;30591;48.228;16.398;2023-07-30T06:47:59;22.30;99.90
44855;DHT22;30591;48.228;16.398;2023-07-30T06:50:27;22.30;99.90
44855;DHT22;30591;48.228;16.398;2023-07-30T06:52:54;22.30;99.90
44855;DHT22;30591;48.228;16.398;2023-07-30T06:55:21;22.30;99.90
44855;DHT22;30591;48.228;16.398;2023-07-30T06:57:49;22.20;99.90
44855;DHT22;30591;48.228;16.398;2023-07-30T07:00:16;22.00;99.90
44855;DHT22;30591;48.228;16.398;2023-07-30T07:02:49;21.90;99.90
44855;DHT22;30591;48.228;16.398;2023-07-30T07:05:16;21.80;99.90
44855;DHT22;30591;48.228;16.398;2023-07-30T07:07:45;21.70;99.90
44855;DHT22;30591;48.228;16.398;2023-07-30T07:10:12;21.50;99.90
44855;DHT22;30591;48.228;16.398;2023-07-30T07:12:39;21.60;99.90
44855;DHT22;30591;48.228;16.398;2023-07-30T07:15:07;21.50;99.90
44855;DHT22;30591;48.228;16.398;2023-07-30T07:17:35;21.10;99.90
44855;DHT22;30591;48.228;16.398;2023-07-30T07:20:03;21.00;99.90
44855;DHT22;30591;48.228;16.398;2023-07-30T07:22:32;21.10;99.90
44855;DHT22;30591;48.228;16.398;2023-07-30T07:25:00;20.90;99.90
44855;DHT22;30591;48.228;16.398;2023-07-30T07:27:27;20.60;99.90
44855;DHT22;30591;48.228;16.398;2023-07-30T07:29:55;20.60;99.90
44855;DHT22;30591;48.228;16.398;2023-07-30T07:32:23;20.60;99.90
44855;DHT22;30591;48.228;16.398;2023-07-30T07:34:50;20.40;99.90
44855;DHT22;30591;48.228;16.398;2023-07-30T07:37:18;20.50;99.90
44855;DHT22;30591;48.228;16.398;2023-07-30T07:39:46;20.40;99.90
44855;DHT22;30591;48.228;16.398;2023-07-30T07:42:14;20.40;99.90
44855;DHT22;30591;48.228;16.398;2023-07-30T07:44:41;20.30;99.90
44855;DHT22;30591;48.228;16.398;2023-07-30T07:47:10;20.20;99.90
44855;DHT22;30591;48.228;16.398;2023-07-30T07:49:38;20.20;99.90
44855;DHT22;30591;48.228;16.398;2023-07-30T07:52:25;20.30;99.90
44855;DHT22;30591;48.228;16.398;2023-07-30T07:54:52;20.30;99.90
44855;DHT22;30591;48.228;16.398;2023-07-30T07:57:19;20.30;99.90
44855;DHT22;30591;48.228;16.398;2023-07-30T07:59:47;20.40;99.90
44855;DHT22;30591;48.228;16.398;2023-07-30T08:02:14;20.50;99.90
44855;DHT22;30591;48.228;16.398;2023-07-30T08:04:42;20.50;99.90
44855;DHT22;30591;48.228;16.398;2023-07-30T08:07:09;20.70;99.90
44855;DHT22;30591;48.228;16.398;2023-07-30T08:09:37;20.70;99.90
44855;DHT22;30591;48.228;16.398;2023-07-30T08:12:04;20.70;99.90
44855;DHT22;30591;48.228;16.398;2023-07-30T08:14:32;20.90;99.90
44855;DHT22;30591;48.228;16.398;2023-07-30T08:16:59;21.00;99.90
44855;DHT22;30591;48.228;16.398;2023-07-30T08:19:26;21.00;99.90
44855;DHT22;30591;48.228;16.398;2023-07-30T08:21:54;21.00;99.90
44855;DHT22;30591;48.228;16.398;2023-07-30T08:24:23;21.10;99.90
44855;DHT22;30591;48.228;16.398;2023-07-30T08:26:51;20.90;99.90
44855;DHT22;30591;48.228;16.398;2023-07-30T08:29:18;20.90;99.90
44855;DHT22;30591;48.228;16.398;2023-07-30T08:31:46;20.80;99.90
44855;DHT22;30591;48.228;16.398;2023-07-30T08:34:13;20.90;99.90
44855;DHT22;30591;48.228;16.398;2023-07-30T08:36:41;20.90;99.90
44855;DHT22;30591;48.228;16.398;2023-07-30T08:39:08;20.90;99.90
44855;DHT22;30591;48.228;16.398;2023-07-30T08:41:35;21.10;99.90
44855;DHT22;30591;48.228;16.398;2023-07-30T08:44:04;21.30;99.90
44855;DHT22;30591;48.228;16.398;2023-07-30T08:46:32;21.30;99.90
44855;DHT22;30591;48.228;16.398;2023-07-30T08:49:00;21.60;99.90
44855;DHT22;30591;48.228;16.398;2023-07-30T08:51:27;21.60;99.90
44855;DHT22;30591;48.228;16.398;2023-07-30T08:53:57;21.50;99.90
44855;DHT22;30591;48.228;16.398;2023-07-30T08:56:25;21.30;99.90
44855;DHT22;30591;48.228;16.398;2023-07-30T08:58:56;21.30;99.90
44855;DHT22;30591;48.228;16.398;2023-07-30T09:01:37;21.50;99.90
44855;DHT22;30591;48.228;16.398;2023-07-30T09:04:06;21.70;99.90
44855;DHT22;30591;48.228;16.398;2023-07-30T09:06:33;22.20;99.90
44855;DHT22;30591;48.228;16.398;2023-07-30T09:09:02;22.60;99.90
44855;DHT22;30591;48.228;16.398;2023-07-30T09:11:30;23.00;99.90
44855;DHT22;30591;48.228;16.398;2023-07-30T09:14:00;23.00;99.90
44855;DHT22;30591;48.228;16.398;2023-07-30T09:16:28;23.20;99.90
44855;DHT22;30591;48.228;16.398;2023-07-30T09:18:55;23.40;99.90
44855;DHT22;30591;48.228;16.398;2023-07-30T09:21:33;23.40;99.90
44855;DHT22;30591;48.228;16.398;2023-07-30T09:24:03;23.60;99.90
44855;DHT22;30591;48.228;16.398;2023-07-30T09:26:45;23.40;99.90
44855;DHT22;30591;48.228;16.398;2023-07-30T09:29:13;23.30;99.90
44855;DHT22;30591;48.228;16.398;2023-07-30T09:31:49;23.30;99.90
44855;DHT22;30591;48.228;16.398;2023-07-30T09:34:18;23.50;99.90
44855;DHT22;30591;48.228;16.398;2023-07-30T09:36:50;23.80;99.90
44855;DHT22;30591;48.228;16.398;2023-07-30T09:39:23;23.80;99.90
44855;DHT22;30591;48.228;16.398;2023-07-30T09:41:53;23.70;99.90
44855;DHT22;30591;48.228;16.398;2023-07-30T09:44:27;24.10;99.90
44855;DHT22;30591;48.228;16.398;2023-07-30T09:46:54;24.10;99.90
44855;DHT22;30591;48.228;16.398;2023-07-30T09:49:22;24.50;99.90
44855;DHT22;30591;48.228;16.398;2023-07-30T09:51:52;25.00;99.90
44855;DHT22;30591;48.228;16.398;2023-07-30T09:54:20;25.10;99.90
44855;DHT22;30591;48.228;16.398;2023-07-30T09:56:49;24.70;99.90
44855;DHT22;30591;48.228;16.398;2023-07-30T09:59:17;24.70;99.90
44855;DHT22;30591;48.228;16.398;2023-07-30T10:01:47;24.60;99.90
44855;DHT22;30591;48.228;16.398;2023-07-30T10:04:19;24.40;99.90
44855;DHT22;30591;48.228;16.398;2023-07-30T10:09:21;25.00;99.90
44855;DHT22;30591;48.228;16.398;2023-07-30T10:11:52;25.10;99.90
44855;DHT22;30591;48.228;16.398;2023-07-30T10:14:23;25.30;99.90
44855;DHT22;30591;48.228;16.398;2023-07-30T10:16:59;25.40;99.90
44855;DHT22;30591;48.228;16.398;2023-07-30T10:19:29;25.60;99.90
44855;DHT22;30591;48.228;16.398;2023-07-30T10:22:20;25.80;99.90
44855;DHT22;30591;48.228;16.398;2023-07-30T10:25:03;25.50;99.90
44855;DHT22;30591;48.228;16.398;2023-07-30T10:27:41;24.90;99.90
44855;DHT22;30591;48.228;16.398;2023-07-30T10:30:18;24.10;99.90
44855;DHT22;30591;48.228;16.398;2023-07-30T10:35:43;21.10;99.90
44855;DHT22;30591;48.228;16.398;2023-07-30T10:38:28;20.80;99.90
44855;DHT22;30591;48.228;16.398;2023-07-30T10:43:41;21.90;99.90
44855;DHT22;30591;48.228;16.398;2023-07-30T10:46:11;22.60;99.90
44855;DHT22;30591;48.228;16.398;2023-07-30T10:48:43;23.00;99.90
44855;DHT22;30591;48.228;16.398;2023-07-30T10:51:16;23.20;99.90
44855;DHT22;30591;48.228;16.398;2023-07-30T10:53:47;23.30;99.90
44855;DHT22;30591;48.228;16.398;2023-07-30T10:56:17;23.40;99.90
44855;DHT22;30591;48.228;16.398;2023-07-30T10:58:50;23.90;99.90
44855;DHT22;30591;48.228;16.398;2023-07-30T11:01:18;24.80;99.90
44855;DHT22;30591;48.228;16.398;2023-07-30T11:03:50;25.20;99.90
44855;DHT22;30591;48.228;16.398;2023-07-30T11:08:53;25.70;99.90
44855;DHT22;30591;48.228;16.398;2023-07-30T11:11:21;26.60;99.90
44855;DHT22;30591;48.228;16.398;2023-07-30T11:13:52;26.60;99.90
44855;DHT22;30591;48.228;16.398;2023-07-30T11:16:20;25.70;99.90
44855;DHT22;30591;48.228;16.398;2023-07-30T11:18:48;25.10;99.90
44855;DHT22;30591;48.228;16.398;2023-07-30T11:21:17;25.30;99.90
44855;DHT22;30591;48.228;16.398;2023-07-30T11:23:45;25.50;99.90
44855;DHT22;30591;48.228;16.398;2023-07-30T11:26:18;26.20;99.90
44855;DHT22;30591;48.228;16.398;2023-07-30T11:28:46;26.40;99.90
44855;DHT22;30591;48.228;16.398;2023-07-30T11:31:16;26.90;99.90
44855;DHT22;30591;48.228;16.398;2023-07-30T11:33:47;25.90;99.90
44855;DHT22;30591;48.228;16.398;2023-07-30T11:36:20;25.90;99.90
44855;DHT22;30591;48.228;16.398;2023-07-30T11:38:51;25.60;99.90
44855;DHT22;30591;48.228;16.398;2023-07-30T11:41:23;25.00;99.90
44855;DHT22;30591;48.228;16.398;2023-07-30T11:43:51;25.00;99.90
44855;DHT22;30591;48.228;16.398;2023-07-30T11:46:19;25.10;99.90
44855;DHT22;30591;48.228;16.398;2023-07-30T11:48:52;25.60;99.90
44855;DHT22;30591;48.228;16.398;2023-07-30T11:51:29;25.30;99.90
44855;DHT22;30591;48.228;16.398;2023-07-30T11:53:58;25.80;99.90
44855;DHT22;30591;48.228;16.398;2023-07-30T11:56:29;26.80;99.90
44855;DHT22;30591;48.228;16.398;2023-07-30T11:59:00;27.50;99.90
44855;DHT22;30591;48.228;16.398;2023-07-30T12:01:34;27.70;99.90
44855;DHT22;30591;48.228;16.398;2023-07-30T12:04:04;27.20;99.90
44855;DHT22;30591;48.228;16.398;2023-07-30T12:09:14;25.90;99.90
44855;DHT22;30591;48.228;16.398;2023-07-30T12:11:52;25.50;99.90
44855;DHT22;30591;48.228;16.398;2023-07-30T12:14:39;26.30;99.90
44855;DHT22;30591;48.228;16.398;2023-07-30T12:17:10;26.80;99.90
44855;DHT22;30591;48.228;16.398;2023-07-30T12:19:37;27.10;99.90
44855;DHT22;30591;48.228;16.398;2023-07-30T12:22:05;27.40;99.90
44855;DHT22;30591;48.228;16.398;2023-07-30T12:24:32;27.80;99.90
44855;DHT22;30591;48.228;16.398;2023-07-30T12:27:00;28.70;99.90
44855;DHT22;30591;48.228;16.398;2023-07-30T12:29:28;29.70;99.40
44855;DHT22;30591;48.228;16.398;2023-07-30T12:31:56;28.90;99.90
44855;DHT22;30591;48.228;16.398;2023-07-30T12:34:25;30.20;97.50
44855;DHT22;30591;48.228;16.398;2023-07-30T12:36:52;27.70;99.90
44855;DHT22;30591;48.228;16.398;2023-07-30T12:39:19;26.30;99.90
44855;DHT22;30591;48.228;16.398;2023-07-30T12:41:47;26.60;99.90
44855;DHT22;30591;48.228;16.398;2023-07-30T12:44:14;30.70;99.10
44855;DHT22;30591;48.228;16.398;2023-07-30T12:46:41;32.00;96.70
44855;DHT22;30591;48.228;16.398;2023-07-30T12:49:09;31.60;98.40
44855;DHT22;30591;48.228;16.398;2023-07-30T12:51:36;29.20;99.90
44855;DHT22;30591;48.228;16.398;2023-07-30T12:54:04;29.60;99.90
44855;DHT22;30591;48.228;16.398;2023-07-30T12:56:31;27.30;99.90
44855;DHT22;30591;48.228;16.398;2023-07-30T12:59:02;26.00;99.90
44855;DHT22;30591;48.228;16.398;2023-07-30T13:01:30;30.10;99.90
44855;DHT22;30591;48.228;16.398;2023-07-30T13:03:57;33.40;98.20
44855;DHT22;30591;48.228;16.398;2023-07-30T13:06:25;31.40;97.90
44855;DHT22;30591;48.228;16.398;2023-07-30T13:08:52;31.20;97.90
44855;DHT22;30591;48.228;16.398;2023-07-30T13:11:21;30.90;98.10
44855;DHT22;30591;48.228;16.398;2023-07-30T13:13:48;29.40;98.60
44855;DHT22;30591;48.228;16.398;2023-07-30T13:16:16;29.80;99.90
44855;DHT22;30591;48.228;16.398;2023-07-30T13:18:43;28.60;99.90
44855;DHT22;30591;48.228;16.398;2023-07-30T13:21:11;29.30;99.90
44855;DHT22;30591;48.228;16.398;2023-07-30T13:23:38;29.30;99.80
44855;DHT22;30591;48.228;16.398;2023-07-30T13:26:05;28.50;99.90
44855;DHT22;30591;48.228;16.398;2023-07-30T13:28:33;28.20;99.90
44855;DHT22;30591;48.228;16.398;2023-07-30T13:31:01;27.30;99.90
44855;DHT22;30591;48.228;16.398;2023-07-30T13:33:28;28.20;99.90
44855;DHT22;30591;48.228;16.398;2023-07-30T13:35:55;29.10;99.80
44855;DHT22;30591;48.228;16.398;2023-07-30T13:38:23;30.20;97.60
44855;DHT22;30591;48.228;16.398;2023-07-30T13:40:53;30.70;97.80
44855;DHT22;30591;48.228;16.398;2023-07-30T13:43:20;31.90;96.50
44855;DHT22;30591;48.228;16.398;2023-07-30T13:45:48;30.70;96.50
44855;DHT22;30591;48.228;16.398;2023-07-30T13:48:20;28.00;99.90
44855;DHT22;30591;48.228;16.398;2023-07-30T13:50:47;28.30;99.90
44855;DHT22;30591;48.228;16.398;2023-07-30T13:53:15;28.20;99.30
44855;DHT22;30591;48.228;16.398;2023-07-30T13:55:42;26.60;99.90
44855;DHT22;30591;48.228;16.398;2023-07-30T13:58:09;26.90;99.90
44855;DHT22;30591;48.228;16.398;2023-07-30T14:00:41;28.20;98.50
44855;DHT22;30591;48.228;16.398;2023-07-30T14:03:09;26.60;99.90
44855;DHT22;30591;48.228;16.398;2023-07-30T14:05:39;28.80;98.80
44855;DHT22;30591;48.228;16.398;2023-07-30T14:08:07;32.00;92.10
44855;DHT22;30591;48.228;16.398;2023-07-30T14:10:34;32.70;89.80
44855;DHT22;30591;48.228;16.398;2023-07-30T14:13:01;29.80;95.00
44855;DHT22;30591;48.228;16.398;2023-07-30T14:15:28;32.90;91.00
44855;DHT22;30591;48.228;16.398;2023-07-30T14:17:56;33.30;90.50
44855;DHT22;30591;48.228;16.398;2023-07-30T14:20:23;30.30;92.00
44855;DHT22;30591;48.228;16.398;2023-07-30T14:22:51;28.10;97.10
44855;DHT22;30591;48.228;16.398;2023-07-30T14:25:19;29.60;96.50
44855;DHT22;30591;48.228;16.398;2023-07-30T14:27:47;28.90;96.60
44855;DHT22;30591;48.228;16.398;2023-07-30T14:30:14;27.10;98.80
44855;DHT22;30591;48.228;16.398;2023-07-30T14:32:42;26.40;99.70
44855;DHT22;30591;48.228;16.398;2023-07-30T14:35:09;25.90;99.90
44855;DHT22;30591;48.228;16.398;2023-07-30T14:37:37;25.50;99.80
44855;DHT22;30591;48.228;16.398;2023-07-30T14:40:05;25.30;99.90
44855;DHT22;30591;48.228;16.398;2023-07-30T14:42:33;25.30;99.90
44855;DHT22;30591;48.228;16.398;2023-07-30T14:45:00;25.20;99.90
44855;DHT22;30591;48.228;16.398;2023-07-30T14:47:27;25.00;99.90
44855;DHT22;30591;48.228;16.398;2023-07-30T14:49:55;24.90;99.90
44855;DHT22;30591;48.228;16.398;2023-07-30T14:52:22;24.70;99.90
44855;DHT22;30591;48.228;16.398;2023-07-30T14:54:51;24.60;99.90
44855;DHT22;30591;48.228;16.398;2023-07-30T14:57:19;24.50;99.90
44855;DHT22;30591;48.228;16.398;2023-07-30T14:59:47;24.50;99.90
44855;DHT22;30591;48.228;16.398;2023-07-30T15:02:15;24.60;99.90
44855;DHT22;30591;48.228;16.398;2023-07-30T15:04:42;24.70;99.90
44855;DHT22;30591;48.228;16.398;2023-07-30T15:07:10;24.70;99.90
44855;DHT22;30591;48.228;16.398;2023-07-30T15:09:37;28.80;99.90
44855;DHT22;30591;48.228;16.398;2023-07-30T15:12:06;30.00;97.20
44855;DHT22;30591;48.228;16.398;2023-07-30T15:14:35;28.20;98.00
44855;DHT22;30591;48.228;16.398;2023-07-30T15:17:02;26.60;99.90
44855;DHT22;30591;48.228;16.398;2023-07-30T15:19:30;25.80;99.90
44855;DHT22;30591;48.228;16.398;2023-07-30T15:21:57;25.40;99.90
44855;DHT22;30591;48.228;16.398;2023-07-30T15:24:24;25.00;99.90
44855;DHT22;30591;48.228;16.398;2023-07-30T15:26:52;24.70;99.90
44855;DHT22;30591;48.228;16.398;2023-07-30T15:29:20;24.60;99.90
44855;DHT22;30591;48.228;16.398;2023-07-30T15:31:49;24.60;99.90
44855;DHT22;30591;48.228;16.398;2023-07-30T15:34:18;24.40;99.90
44855;DHT22;30591;48.228;16.398;2023-07-30T15:36:45;24.50;99.90
44855;DHT22;30591;48.228;16.398;2023-07-30T15:39:12;24.50;99.90